Molokai, Hawaii
Current Conditions -  °F | °C
As of 2:54 PM on Friday 19 Dec 2014 (Local Time) from PHMK Reporting Station
Few Clouds Few Clouds  
Wind Chill: 81°   Ceiling: Unl
Heat Index: 83°   Visibility: 10mi
Dew Point: 66°   Wind: 12mph
Humidity: 60%   Direction: 40°NE
Pressure: 29.99"   Gusts: 21mph
Location:  21.13°N, 157.18°W
Report Text: PHMK 200054Z 04010G18KT 10SM FEW028 27/19 A2999 RMK AO2 SLP156 T02720189
Loading
Personal Weather Stations






























Interactive Weather Map New forecast layout! Learn more

10-Day Weather Forecast

Advertisements
Track Severe Weather on mobile